sensor_id;sensor_type;location;lat;lon;timestamp;pressure;altitude;pressure_sealevel;temperature;humidity
70971;BME280;58632;51.718;19.446;2023-05-08T00:01:54;100814.11;;;1.33;100.00
70971;BME280;58632;51.718;19.446;2023-05-08T00:04:19;100812.16;;;1.35;100.00
70971;BME280;58632;51.718;19.446;2023-05-08T00:06:47;100809.86;;;1.38;100.00
70971;BME280;58632;51.718;19.446;2023-05-08T00:09:15;100810.69;;;1.43;100.00
70971;BME280;58632;51.718;19.446;2023-05-08T00:11:41;100811.30;;;1.52;100.00
70971;BME280;58632;51.718;19.446;2023-05-08T00:14:06;100813.80;;;1.60;100.00
70971;BME280;58632;51.718;19.446;2023-05-08T00:16:32;100814.62;;;1.65;100.00
70971;BME280;58632;51.718;19.446;2023-05-08T00:18:57;100816.70;;;1.69;100.00
70971;BME280;58632;51.718;19.446;2023-05-08T00:21:23;100818.28;;;1.72;100.00
70971;BME280;58632;51.718;19.446;2023-05-08T00:23:49;100816.70;;;1.74;100.00
70971;BME280;58632;51.718;19.446;2023-05-08T00:26:14;100820.45;;;1.73;100.00
70971;BME280;58632;51.718;19.446;2023-05-08T00:28:40;100821.11;;;1.72;100.00
70971;BME280;58632;51.718;19.446;2023-05-08T00:31:05;100819.65;;;1.72;100.00
70971;BME280;58632;51.718;19.446;2023-05-08T00:33:31;100822.83;;;1.73;100.00
70971;BME280;58632;51.718;19.446;2023-05-08T00:36:02;100823.28;;;1.75;100.00
70971;BME280;58632;51.718;19.446;2023-05-08T00:38:31;100820.30;;;1.77;100.00
70971;BME280;58632;51.718;19.446;2023-05-08T00:40:56;100825.63;;;1.81;100.00
70971;BME280;58632;51.718;19.446;2023-05-08T00:43:22;100822.59;;;1.80;100.00
70971;BME280;58632;51.718;19.446;2023-05-08T00:45:50;100827.27;;;1.81;100.00
70971;BME280;58632;51.718;19.446;2023-05-08T00:48:16;100834.58;;;1.85;100.00
70971;BME280;58632;51.718;19.446;2023-05-08T00:50:41;100834.98;;;1.86;100.00
70971;BME280;58632;51.718;19.446;2023-05-08T00:53:07;100838.13;;;1.85;100.00
70971;BME280;58632;51.718;19.446;2023-05-08T00:55:32;100840.27;;;1.81;100.00
70971;BME280;58632;51.718;19.446;2023-05-08T00:57:58;100838.66;;;1.77;100.00
70971;BME280;58632;51.718;19.446;2023-05-08T01:00:23;100842.05;;;1.71;100.00
70971;BME280;58632;51.718;19.446;2023-05-08T01:02:49;100840.80;;;1.67;100.00
70971;BME280;58632;51.718;19.446;2023-05-08T01:05:14;100844.07;;;1.66;100.00
70971;BME280;58632;51.718;19.446;2023-05-08T01:07:40;100847.65;;;1.65;100.00
70971;BME280;58632;51.718;19.446;2023-05-08T01:10:05;100845.76;;;1.62;100.00
70971;BME280;58632;51.718;19.446;2023-05-08T01:15:30;100851.84;;;1.59;100.00
70971;BME280;58632;51.718;19.446;2023-05-08T01:20:38;100855.42;;;1.58;100.00
70971;BME280;58632;51.718;19.446;2023-05-08T01:26:12;100858.84;;;1.46;100.00
70971;BME280;58632;51.718;19.446;2023-05-08T01:31:18;100863.13;;;1.33;100.00
70971;BME280;58632;51.718;19.446;2023-05-08T01:39:09;100863.45;;;1.30;100.00
70971;BME280;58632;51.718;19.446;2023-05-08T01:41:38;100862.10;;;1.31;100.00
70971;BME280;58632;51.718;19.446;2023-05-08T01:44:12;100867.10;;;1.32;100.00
70971;BME280;58632;51.718;19.446;2023-05-08T01:46:39;100866.69;;;1.35;100.00
70971;BME280;58632;51.718;19.446;2023-05-08T01:49:10;100869.75;;;1.37;100.00
70971;BME280;58632;51.718;19.446;2023-05-08T01:51:40;100865.20;;;1.36;100.00
70971;BME280;58632;51.718;19.446;2023-05-08T01:54:08;100867.34;;;1.35;100.00
70971;BME280;58632;51.718;19.446;2023-05-08T01:56:35;100868.35;;;1.32;100.00
70971;BME280;58632;51.718;19.446;2023-05-08T01:59:02;100866.20;;;1.31;100.00
70971;BME280;58632;51.718;19.446;2023-05-08T02:01:28;100869.70;;;1.28;100.00
70971;BME280;58632;51.718;19.446;2023-05-08T02:03:56;100869.16;;;1.21;100.00
70971;BME280;58632;51.718;19.446;2023-05-08T02:06:22;100870.33;;;1.15;100.00
70971;BME280;58632;51.718;19.446;2023-05-08T02:08:49;100870.27;;;1.09;100.00
70971;BME280;58632;51.718;19.446;2023-05-08T02:11:15;100871.17;;;1.01;100.00
70971;BME280;58632;51.718;19.446;2023-05-08T02:13:41;100872.48;;;0.95;100.00
70971;BME280;58632;51.718;19.446;2023-05-08T02:16:08;100874.31;;;0.89;100.00
70971;BME280;58632;51.718;19.446;2023-05-08T02:18:38;100874.68;;;0.84;100.00
70971;BME280;58632;51.718;19.446;2023-05-08T02:21:05;100876.58;;;0.78;100.00
70971;BME280;58632;51.718;19.446;2023-05-08T02:23:33;100875.19;;;0.72;100.00
70971;BME280;58632;51.718;19.446;2023-05-08T02:26:02;100875.66;;;0.72;100.00
70971;BME280;58632;51.718;19.446;2023-05-08T02:28:28;100881.13;;;0.72;100.00
70971;BME280;58632;51.718;19.446;2023-05-08T02:30:54;100883.21;;;0.74;100.00
70971;BME280;58632;51.718;19.446;2023-05-08T02:33:20;100888.21;;;0.78;100.00
70971;BME280;58632;51.718;19.446;2023-05-08T02:35:47;100885.63;;;0.84;100.00
70971;BME280;58632;51.718;19.446;2023-05-08T02:38:14;100892.77;;;0.90;100.00
70971;BME280;58632;51.718;19.446;2023-05-08T02:40:43;100891.77;;;0.92;100.00
70971;BME280;58632;51.718;19.446;2023-05-08T02:43:10;100892.00;;;0.97;100.00
70971;BME280;58632;51.718;19.446;2023-05-08T02:45:38;100891.00;;;0.96;100.00
70971;BME280;58632;51.718;19.446;2023-05-08T02:48:09;100893.84;;;0.99;100.00
70971;BME280;58632;51.718;19.446;2023-05-08T02:53:08;100893.95;;;1.07;100.00
70971;BME280;58632;51.718;19.446;2023-05-08T02:55:43;100891.71;;;1.12;100.00
70971;BME280;58632;51.718;19.446;2023-05-08T02:58:16;100892.27;;;1.19;100.00
70971;BME280;58632;51.718;19.446;2023-05-08T03:00:48;100891.73;;;1.26;100.00
70971;BME280;58632;51.718;19.446;2023-05-08T03:03:18;100888.80;;;1.35;100.00
70971;BME280;58632;51.718;19.446;2023-05-08T03:05:49;100884.02;;;1.41;100.00
70971;BME280;58632;51.718;19.446;2023-05-08T03:08:17;100888.23;;;1.47;100.00
70971;BME280;58632;51.718;19.446;2023-05-08T03:10:44;100890.17;;;1.49;100.00
70971;BME280;58632;51.718;19.446;2023-05-08T03:13:10;100890.03;;;1.53;100.00
70971;BME280;58632;51.718;19.446;2023-05-08T03:15:41;100889.00;;;1.57;100.00
70971;BME280;58632;51.718;19.446;2023-05-08T03:18:09;100894.42;;;1.60;100.00
70971;BME280;58632;51.718;19.446;2023-05-08T03:20:40;100894.98;;;1.63;100.00
70971;BME280;58632;51.718;19.446;2023-05-08T03:23:08;100898.04;;;1.69;100.00
70971;BME280;58632;51.718;19.446;2023-05-08T03:25:34;100903.15;;;1.79;100.00
70971;BME280;58632;51.718;19.446;2023-05-08T03:28:03;100899.02;;;1.88;100.00
70971;BME280;58632;51.718;19.446;2023-05-08T03:30:28;100896.30;;;1.94;100.00
70971;BME280;58632;51.718;19.446;2023-05-08T03:32:56;100898.43;;;2.03;100.00
70971;BME280;58632;51.718;19.446;2023-05-08T03:35:22;100894.38;;;2.11;100.00
70971;BME280;58632;51.718;19.446;2023-05-08T03:37:48;100898.71;;;2.19;100.00
70971;BME280;58632;51.718;19.446;2023-05-08T03:40:13;100898.11;;;2.24;100.00
70971;BME280;58632;51.718;19.446;2023-05-08T03:42:39;100890.38;;;2.30;100.00
70971;BME280;58632;51.718;19.446;2023-05-08T03:45:05;100892.08;;;2.36;100.00
70971;BME280;58632;51.718;19.446;2023-05-08T03:47:31;100887.98;;;2.43;100.00
70971;BME280;58632;51.718;19.446;2023-05-08T03:49:57;100887.09;;;2.52;100.00
70971;BME280;58632;51.718;19.446;2023-05-08T03:52:23;100890.57;;;2.62;100.00
70971;BME280;58632;51.718;19.446;2023-05-08T03:54:49;100892.29;;;2.73;100.00
70971;BME280;58632;51.718;19.446;2023-05-08T03:57:15;100896.77;;;2.84;100.00
70971;BME280;58632;51.718;19.446;2023-05-08T03:59:41;100893.82;;;2.98;100.00
70971;BME280;58632;51.718;19.446;2023-05-08T04:04:39;100897.98;;;3.21;100.00
70971;BME280;58632;51.718;19.446;2023-05-08T04:07:07;100905.73;;;3.31;100.00
70971;BME280;58632;51.718;19.446;2023-05-08T04:12:31;100912.10;;;3.58;100.00
70971;BME280;58632;51.718;19.446;2023-05-08T04:15:00;100914.55;;;3.74;100.00
70971;BME280;58632;51.718;19.446;2023-05-08T04:17:33;100917.90;;;4.82;100.00
70971;BME280;58632;51.718;19.446;2023-05-08T04:20:01;100919.78;;;6.70;100.00
70971;BME280;58632;51.718;19.446;2023-05-08T04:22:30;100919.13;;;8.24;100.00
70971;BME280;58632;51.718;19.446;2023-05-08T04:24:57;100926.58;;;9.50;100.00
70971;BME280;58632;51.718;19.446;2023-05-08T04:27:24;100928.03;;;10.64;100.00
70971;BME280;58632;51.718;19.446;2023-05-08T04:29:49;100930.27;;;11.69;100.00
70971;BME280;58632;51.718;19.446;2023-05-08T04:32:15;100935.67;;;12.56;100.00
70971;BME280;58632;51.718;19.446;2023-05-08T04:34:41;100938.84;;;13.15;100.00
70971;BME280;58632;51.718;19.446;2023-05-08T04:37:06;100938.35;;;13.76;100.00
70971;BME280;58632;51.718;19.446;2023-05-08T04:39:32;100944.77;;;14.53;100.00
70971;BME280;58632;51.718;19.446;2023-05-08T04:41:57;100944.21;;;15.12;100.00
70971;BME280;58632;51.718;19.446;2023-05-08T04:44:27;100945.39;;;15.50;100.00
70971;BME280;58632;51.718;19.446;2023-05-08T04:46:53;100944.31;;;15.96;99.43
70971;BME280;58632;51.718;19.446;2023-05-08T04:49:19;100942.48;;;16.55;96.19
70971;BME280;58632;51.718;19.446;2023-05-08T04:51:44;100945.85;;;17.14;88.00
70971;BME280;58632;51.718;19.446;2023-05-08T04:54:09;100950.91;;;16.86;73.64
70971;BME280;58632;51.718;19.446;2023-05-08T04:56:35;100951.30;;;15.68;77.87
70971;BME280;58632;51.718;19.446;2023-05-08T04:59:00;100954.87;;;14.71;87.03
70971;BME280;58632;51.718;19.446;2023-05-08T05:01:26;100957.45;;;14.05;86.54
70971;BME280;58632;51.718;19.446;2023-05-08T05:03:52;100966.08;;;13.57;90.91
70971;BME280;58632;51.718;19.446;2023-05-08T05:06:17;100964.05;;;13.11;92.18
70971;BME280;58632;51.718;19.446;2023-05-08T05:08:43;100965.45;;;12.78;93.67
70971;BME280;58632;51.718;19.446;2023-05-08T05:11:08;100966.83;;;12.55;97.82
70971;BME280;58632;51.718;19.446;2023-05-08T05:13:33;100967.48;;;12.33;99.01
70971;BME280;58632;51.718;19.446;2023-05-08T05:15:59;100973.77;;;12.29;97.46
70971;BME280;58632;51.718;19.446;2023-05-08T05:18:24;100979.30;;;11.97;98.67
70971;BME280;58632;51.718;19.446;2023-05-08T05:20:50;100980.00;;;11.81;100.00
70971;BME280;58632;51.718;19.446;2023-05-08T05:23:15;100979.08;;;12.01;99.88
70971;BME280;58632;51.718;19.446;2023-05-08T05:25:40;100980.52;;;12.46;95.52
70971;BME280;58632;51.718;19.446;2023-05-08T05:28:06;100981.45;;;13.03;94.82
70971;BME280;58632;51.718;19.446;2023-05-08T05:30:32;100982.83;;;13.84;84.52
70971;BME280;58632;51.718;19.446;2023-05-08T05:32:57;100982.69;;;14.33;81.89
70971;BME280;58632;51.718;19.446;2023-05-08T05:35:23;100985.13;;;15.03;81.41
70971;BME280;58632;51.718;19.446;2023-05-08T05:37:48;100982.14;;;15.71;73.83
70971;BME280;58632;51.718;19.446;2023-05-08T05:40:14;100979.30;;;16.21;70.07
70971;BME280;58632;51.718;19.446;2023-05-08T05:42:39;100977.17;;;16.48;63.43
70971;BME280;58632;51.718;19.446;2023-05-08T05:45:05;100981.04;;;16.19;59.38
70971;BME280;58632;51.718;19.446;2023-05-08T05:47:30;100987.51;;;16.32;61.91
70971;BME280;58632;51.718;19.446;2023-05-08T05:49:56;100987.52;;;16.58;61.26
70971;BME280;58632;51.718;19.446;2023-05-08T05:52:21;100987.10;;;16.63;59.68
70971;BME280;58632;51.718;19.446;2023-05-08T05:54:47;100988.14;;;17.03;59.24
70971;BME280;58632;51.718;19.446;2023-05-08T05:57:12;100986.27;;;16.62;54.16
70971;BME280;58632;51.718;19.446;2023-05-08T05:59:38;100991.09;;;16.37;53.75
70971;BME280;58632;51.718;19.446;2023-05-08T06:02:03;100989.69;;;16.17;56.65
70971;BME280;58632;51.718;19.446;2023-05-08T06:04:50;100989.27;;;16.41;58.01
70971;BME280;58632;51.718;19.446;2023-05-08T06:07:18;100991.44;;;16.86;56.54
70971;BME280;58632;51.718;19.446;2023-05-08T06:09:45;100991.06;;;17.05;51.88
70971;BME280;58632;51.718;19.446;2023-05-08T06:12:10;100989.71;;;17.34;52.58
70971;BME280;58632;51.718;19.446;2023-05-08T06:14:36;100988.08;;;17.29;50.15
70971;BME280;58632;51.718;19.446;2023-05-08T06:17:01;100991.43;;;17.27;54.18
70971;BME280;58632;51.718;19.446;2023-05-08T06:19:27;100996.61;;;17.56;50.67
70971;BME280;58632;51.718;19.446;2023-05-08T06:21:52;100994.65;;;17.77;51.63
70971;BME280;58632;51.718;19.446;2023-05-08T06:24:18;100995.55;;;17.84;50.69
70971;BME280;58632;51.718;19.446;2023-05-08T06:26:43;100994.93;;;17.43;50.47
70971;BME280;58632;51.718;19.446;2023-05-08T06:29:10;100998.24;;;16.73;53.32
70971;BME280;58632;51.718;19.446;2023-05-08T06:31:36;100996.96;;;16.43;55.87
70971;BME280;58632;51.718;19.446;2023-05-08T06:34:01;100998.45;;;16.13;55.97
70971;BME280;58632;51.718;19.446;2023-05-08T06:36:27;101003.81;;;15.69;58.04
70971;BME280;58632;51.718;19.446;2023-05-08T06:38:54;101005.34;;;15.30;62.60
70971;BME280;58632;51.718;19.446;2023-05-08T06:41:20;101004.02;;;15.42;69.54
70971;BME280;58632;51.718;19.446;2023-05-08T06:43:45;101011.09;;;15.73;71.04
70971;BME280;58632;51.718;19.446;2023-05-08T06:46:11;101005.36;;;15.90;67.54
70971;BME280;58632;51.718;19.446;2023-05-08T06:48:37;101012.04;;;15.98;69.94
70971;BME280;58632;51.718;19.446;2023-05-08T06:51:02;101017.63;;;15.90;64.81
70971;BME280;58632;51.718;19.446;2023-05-08T06:53:28;101017.08;;;15.22;64.40
70971;BME280;58632;51.718;19.446;2023-05-08T06:55:56;101013.51;;;15.09;71.58
70971;BME280;58632;51.718;19.446;2023-05-08T06:58:24;101015.17;;;15.15;72.24
70971;BME280;58632;51.718;19.446;2023-05-08T07:00:50;101018.37;;;15.26;75.53
70971;BME280;58632;51.718;19.446;2023-05-08T07:03:15;101022.20;;;15.36;72.16
70971;BME280;58632;51.718;19.446;2023-05-08T07:05:40;101026.02;;;15.30;67.73
70971;BME280;58632;51.718;19.446;2023-05-08T07:08:06;101024.11;;;15.24;68.96
70971;BME280;58632;51.718;19.446;2023-05-08T07:10:31;101028.23;;;15.12;70.64
70971;BME280;58632;51.718;19.446;2023-05-08T07:12:57;101029.08;;;14.96;66.45
70971;BME280;58632;51.718;19.446;2023-05-08T07:15:22;101035.75;;;14.97;69.06
70971;BME280;58632;51.718;19.446;2023-05-08T07:17:48;101031.17;;;15.14;75.73
70971;BME280;58632;51.718;19.446;2023-05-08T07:20:13;101034.02;;;15.48;72.54
70971;BME280;58632;51.718;19.446;2023-05-08T07:22:38;101039.80;;;15.50;67.28
70971;BME280;58632;51.718;19.446;2023-05-08T07:25:04;101036.49;;;15.33;63.99
70971;BME280;58632;51.718;19.446;2023-05-08T07:27:30;101038.77;;;15.14;64.46
70971;BME280;58632;51.718;19.446;2023-05-08T07:29:55;101034.04;;;15.01;63.34
70971;BME280;58632;51.718;19.446;2023-05-08T07:32:23;101032.52;;;15.09;62.03
70971;BME280;58632;51.718;19.446;2023-05-08T07:34:48;101042.73;;;15.20;67.55
70971;BME280;58632;51.718;19.446;2023-05-08T07:37:14;101037.30;;;15.32;63.72
70971;BME280;58632;51.718;19.446;2023-05-08T07:39:39;101038.80;;;15.35;61.50
70971;BME280;58632;51.718;19.446;2023-05-08T07:42:05;101039.73;;;15.39;57.47
70971;BME280;58632;51.718;19.446;2023-05-08T07:44:31;101037.64;;;15.24;60.57
70971;BME280;58632;51.718;19.446;2023-05-08T07:46:57;101038.36;;;15.26;62.65
70971;BME280;58632;51.718;19.446;2023-05-08T07:49:23;101037.95;;;15.27;62.86
70971;BME280;58632;51.718;19.446;2023-05-08T07:51:48;101042.80;;;15.49;68.95
70971;BME280;58632;51.718;19.446;2023-05-08T07:54:13;101041.73;;;15.73;65.64
70971;BME280;58632;51.718;19.446;2023-05-08T07:56:39;101040.48;;;16.08;68.70
70971;BME280;58632;51.718;19.446;2023-05-08T07:59:04;101040.40;;;16.26;62.63
70971;BME280;58632;51.718;19.446;2023-05-08T08:01:30;101038.48;;;16.20;57.55
70971;BME280;58632;51.718;19.446;2023-05-08T08:03:55;101041.80;;;16.09;58.48
70971;BME280;58632;51.718;19.446;2023-05-08T08:06:21;101043.92;;;15.88;57.36
70971;BME280;58632;51.718;19.446;2023-05-08T08:08:46;101042.84;;;15.82;54.20
70971;BME280;58632;51.718;19.446;2023-05-08T08:11:12;101034.97;;;15.62;58.08
70971;BME280;58632;51.718;19.446;2023-05-08T08:13:37;101038.28;;;15.38;58.16
70971;BME280;58632;51.718;19.446;2023-05-08T08:16:03;101041.23;;;15.37;58.48
70971;BME280;58632;51.718;19.446;2023-05-08T08:18:29;101035.48;;;15.55;65.29
70971;BME280;58632;51.718;19.446;2023-05-08T08:20:55;101025.37;;;15.94;65.52
70971;BME280;58632;51.718;19.446;2023-05-08T08:23:20;101027.91;;;16.08;64.13
70971;BME280;58632;51.718;19.446;2023-05-08T08:25:46;101027.20;;;16.19;57.24
70971;BME280;58632;51.718;19.446;2023-05-08T08:28:11;101027.05;;;16.26;57.40
70971;BME280;58632;51.718;19.446;2023-05-08T08:30:36;101017.66;;;16.38;60.21
70971;BME280;58632;51.718;19.446;2023-05-08T08:33:05;101024.16;;;16.55;60.23
70971;BME280;58632;51.718;19.446;2023-05-08T08:35:31;101022.23;;;16.40;51.53
70971;BME280;58632;51.718;19.446;2023-05-08T08:37:59;101021.36;;;16.30;56.29
70971;BME280;58632;51.718;19.446;2023-05-08T08:40:25;101024.80;;;16.38;53.64
70971;BME280;58632;51.718;19.446;2023-05-08T08:42:50;101021.36;;;16.38;48.78
70971;BME280;58632;51.718;19.446;2023-05-08T08:45:16;101019.27;;;16.40;52.65
70971;BME280;58632;51.718;19.446;2023-05-08T08:47:43;101017.64;;;16.45;50.37
70971;BME280;58632;51.718;19.446;2023-05-08T08:50:09;101015.45;;;16.47;54.01
70971;BME280;58632;51.718;19.446;2023-05-08T08:55:00;101013.61;;;16.78;55.80
70971;BME280;58632;51.718;19.446;2023-05-08T08:57:26;101013.92;;;17.00;52.45
70971;BME280;58632;51.718;19.446;2023-05-08T08:59:52;101025.11;;;17.17;49.70
70971;BME280;58632;51.718;19.446;2023-05-08T09:02:19;101017.52;;;16.96;48.13
70971;BME280;58632;51.718;19.446;2023-05-08T09:04:48;101018.79;;;16.50;45.77
70971;BME280;58632;51.718;19.446;2023-05-08T09:07:13;101014.42;;;16.42;47.25
70971;BME280;58632;51.718;19.446;2023-05-08T09:09:39;101010.88;;;16.25;48.45
70971;BME280;58632;51.718;19.446;2023-05-08T09:12:05;101004.95;;;16.28;52.44
70971;BME280;58632;51.718;19.446;2023-05-08T09:14:31;101007.28;;;16.39;50.61
70971;BME280;58632;51.718;19.446;2023-05-08T09:16:56;101012.25;;;16.42;47.42
70971;BME280;58632;51.718;19.446;2023-05-08T09:19:22;101012.09;;;16.48;44.99
70971;BME280;58632;51.718;19.446;2023-05-08T09:21:47;101007.48;;;16.64;44.96
70971;BME280;58632;51.718;19.446;2023-05-08T09:24:13;101011.64;;;16.39;44.88
70971;BME280;58632;51.718;19.446;2023-05-08T09:26:39;101008.66;;;16.08;45.37
70971;BME280;58632;51.718;19.446;2023-05-08T09:31:36;101010.68;;;15.31;46.85
70971;BME280;58632;51.718;19.446;2023-05-08T09:34:04;101006.33;;;15.03;45.56
70971;BME280;58632;51.718;19.446;2023-05-08T09:36:29;101001.83;;;14.76;45.22
70971;BME280;58632;51.718;19.446;2023-05-08T09:38:56;101002.11;;;14.71;46.19
70971;BME280;58632;51.718;19.446;2023-05-08T09:41:21;100999.52;;;14.91;47.47
70971;BME280;58632;51.718;19.446;2023-05-08T09:44:01;101001.55;;;14.95;45.62
70971;BME280;58632;51.718;19.446;2023-05-08T09:46:27;101000.89;;;15.20;45.88
70971;BME280;58632;51.718;19.446;2023-05-08T09:48:55;100992.89;;;15.36;45.18
70971;BME280;58632;51.718;19.446;2023-05-08T09:51:21;100996.58;;;15.52;43.00
70971;BME280;58632;51.718;19.446;2023-05-08T09:53:49;100987.84;;;15.73;42.96
70971;BME280;58632;51.718;19.446;2023-05-08T09:56:15;100991.25;;;15.95;40.45
70971;BME280;58632;51.718;19.446;2023-05-08T09:58:43;100979.02;;;16.07;39.90
70971;BME280;58632;51.718;19.446;2023-05-08T10:03:55;100990.54;;;16.46;39.45
70971;BME280;58632;51.718;19.446;2023-05-08T10:06:21;100981.95;;;16.53;38.80
70971;BME280;58632;51.718;19.446;2023-05-08T10:08:48;100982.16;;;16.46;38.79
70971;BME280;58632;51.718;19.446;2023-05-08T10:13:40;100974.30;;;16.73;37.04
70971;BME280;58632;51.718;19.446;2023-05-08T10:16:06;100973.96;;;16.78;37.09
70971;BME280;58632;51.718;19.446;2023-05-08T10:18:32;100974.92;;;16.86;37.51
70971;BME280;58632;51.718;19.446;2023-05-08T10:20:59;100972.10;;;16.77;36.14
70971;BME280;58632;51.718;19.446;2023-05-08T10:23:27;100967.02;;;16.55;35.75
70971;BME280;58632;51.718;19.446;2023-05-08T10:25:55;100973.54;;;16.32;34.84
70971;BME280;58632;51.718;19.446;2023-05-08T10:28:39;100975.13;;;16.23;35.23
70971;BME280;58632;51.718;19.446;2023-05-08T10:31:05;100970.32;;;16.12;36.13
70971;BME280;58632;51.718;19.446;2023-05-08T10:33:31;100968.09;;;16.00;35.48
70971;BME280;58632;51.718;19.446;2023-05-08T10:35:58;100966.02;;;15.96;38.01
70971;BME280;58632;51.718;19.446;2023-05-08T10:38:24;100971.44;;;16.11;38.31
70971;BME280;58632;51.718;19.446;2023-05-08T10:40:50;100969.41;;;16.19;39.08
70971;BME280;58632;51.718;19.446;2023-05-08T10:43:22;100976.08;;;16.10;37.95
70971;BME280;58632;51.718;19.446;2023-05-08T10:45:48;100971.05;;;15.99;37.79
70971;BME280;58632;51.718;19.446;2023-05-08T10:53:30;100963.30;;;15.93;37.95
70971;BME280;58632;51.718;19.446;2023-05-08T10:55:55;100959.25;;;15.93;37.31
70971;BME280;58632;51.718;19.446;2023-05-08T11:03:22;100948.98;;;15.87;37.90
70971;BME280;58632;51.718;19.446;2023-05-08T11:05:49;100955.52;;;15.70;38.46
70971;BME280;58632;51.718;19.446;2023-05-08T11:08:16;100954.23;;;15.54;38.11
70971;BME280;58632;51.718;19.446;2023-05-08T11:10:42;100954.03;;;15.58;37.69
70971;BME280;58632;51.718;19.446;2023-05-08T11:13:08;100950.96;;;15.69;37.06
70971;BME280;58632;51.718;19.446;2023-05-08T11:15:35;100946.70;;;15.78;36.69
70971;BME280;58632;51.718;19.446;2023-05-08T11:18:07;100945.04;;;15.82;37.05
70971;BME280;58632;51.718;19.446;2023-05-08T11:20:37;100944.73;;;15.85;37.85
70971;BME280;58632;51.718;19.446;2023-05-08T11:23:19;100949.84;;;15.94;38.93
70971;BME280;58632;51.718;19.446;2023-05-08T11:25:45;100940.52;;;15.86;38.16
70971;BME280;58632;51.718;19.446;2023-05-08T11:28:11;100944.39;;;15.71;38.35
70971;BME280;58632;51.718;19.446;2023-05-08T11:30:37;100939.31;;;15.41;37.86
70971;BME280;58632;51.718;19.446;2023-05-08T11:40:48;100938.52;;;15.02;39.18
70971;BME280;58632;51.718;19.446;2023-05-08T11:43:23;100936.98;;;14.96;39.42
70971;BME280;58632;51.718;19.446;2023-05-08T11:45:50;100934.74;;;15.13;39.07
70971;BME280;58632;51.718;19.446;2023-05-08T11:48:16;100933.28;;;15.24;39.08
70971;BME280;58632;51.718;19.446;2023-05-08T11:50:43;100926.20;;;15.33;39.02
70971;BME280;58632;51.718;19.446;2023-05-08T11:53:08;100928.19;;;15.45;40.62
70971;BME280;58632;51.718;19.446;2023-05-08T11:55:34;100921.95;;;15.53;38.51
70971;BME280;58632;51.718;19.446;2023-05-08T11:58:00;100922.77;;;15.52;40.10
70971;BME280;58632;51.718;19.446;2023-05-08T12:00:25;100914.91;;;15.67;39.48
70971;BME280;58632;51.718;19.446;2023-05-08T12:02:51;100914.27;;;15.78;40.15
70971;BME280;58632;51.718;19.446;2023-05-08T12:05:19;100909.29;;;15.85;40.99
70971;BME280;58632;51.718;19.446;2023-05-08T12:07:50;100910.94;;;15.89;39.26
70971;BME280;58632;51.718;19.446;2023-05-08T12:10:15;100911.98;;;15.95;39.47
70971;BME280;58632;51.718;19.446;2023-05-08T12:12:41;100905.19;;;16.06;38.84
70971;BME280;58632;51.718;19.446;2023-05-08T12:15:07;100902.39;;;16.19;39.49
70971;BME280;58632;51.718;19.446;2023-05-08T12:17:33;100908.36;;;16.34;40.70
70971;BME280;58632;51.718;19.446;2023-05-08T12:20:15;100910.99;;;16.21;39.40
70971;BME280;58632;51.718;19.446;2023-05-08T12:22:41;100915.41;;;16.09;38.82
70971;BME280;58632;51.718;19.446;2023-05-08T12:25:07;100907.55;;;16.00;37.17
70971;BME280;58632;51.718;19.446;2023-05-08T12:27:34;100911.16;;;15.77;36.87
70971;BME280;58632;51.718;19.446;2023-05-08T12:30:03;100908.27;;;15.58;37.12
70971;BME280;58632;51.718;19.446;2023-05-08T12:32:29;100903.32;;;15.48;38.43
70971;BME280;58632;51.718;19.446;2023-05-08T12:34:55;100903.13;;;15.45;37.69
70971;BME280;58632;51.718;19.446;2023-05-08T12:37:27;100900.79;;;15.33;37.99
70971;BME280;58632;51.718;19.446;2023-05-08T12:39:52;100903.48;;;15.37;38.58
70971;BME280;58632;51.718;19.446;2023-05-08T12:42:17;100903.91;;;15.27;38.07
70971;BME280;58632;51.718;19.446;2023-05-08T12:44:52;100898.21;;;15.17;38.48
70971;BME280;58632;51.718;19.446;2023-05-08T12:47:20;100903.30;;;15.15;39.18
70971;BME280;58632;51.718;19.446;2023-05-08T12:49:46;100909.88;;;15.24;37.62
70971;BME280;58632;51.718;19.446;2023-05-08T12:52:14;100903.65;;;15.16;37.81
70971;BME280;58632;51.718;19.446;2023-05-08T12:54:45;100903.69;;;14.99;37.83
70971;BME280;58632;51.718;19.446;2023-05-08T12:57:12;100900.00;;;14.91;38.80
70971;BME280;58632;51.718;19.446;2023-05-08T12:59:38;100900.17;;;14.83;38.69
70971;BME280;58632;51.718;19.446;2023-05-08T13:02:10;100897.52;;;14.81;39.10
70971;BME280;58632;51.718;19.446;2023-05-08T13:04:36;100896.88;;;15.03;39.67
70971;BME280;58632;51.718;19.446;2023-05-08T13:07:01;100888.75;;;15.19;39.90
70971;BME280;58632;51.718;19.446;2023-05-08T13:09:27;100886.10;;;15.34;40.53
70971;BME280;58632;51.718;19.446;2023-05-08T13:11:52;100890.11;;;15.58;38.81
70971;BME280;58632;51.718;19.446;2023-05-08T13:14:18;100886.98;;;15.71;38.18
70971;BME280;58632;51.718;19.446;2023-05-08T13:16:43;100886.45;;;15.86;37.56
70971;BME280;58632;51.718;19.446;2023-05-08T13:19:12;100880.18;;;15.91;36.64
70971;BME280;58632;51.718;19.446;2023-05-08T13:21:38;100877.66;;;15.89;37.35
70971;BME280;58632;51.718;19.446;2023-05-08T13:24:04;100881.46;;;15.82;37.76
70971;BME280;58632;51.718;19.446;2023-05-08T13:26:29;100882.97;;;15.76;38.56
70971;BME280;58632;51.718;19.446;2023-05-08T13:28:55;100874.00;;;15.85;39.18
70971;BME280;58632;51.718;19.446;2023-05-08T13:31:20;100875.31;;;15.92;39.60